createdAt,value
2023-06-04T00:01:01.081Z,1.35
2023-06-04T00:03:27.966Z,1.70
2023-06-04T00:05:54.692Z,1.67
2023-06-04T00:08:21.214Z,1.55
2023-06-04T00:10:47.705Z,1.40
2023-06-04T00:13:14.313Z,1.63
2023-06-04T00:15:41.079Z,1.30
2023-06-04T00:18:07.618Z,1.25
2023-06-04T00:20:34.215Z,1.50
2023-06-04T00:23:00.709Z,1.70
2023-06-04T00:25:27.153Z,2.00
2023-06-04T00:27:53.599Z,1.58
2023-06-04T00:30:20.117Z,1.63
2023-06-04T00:32:48.203Z,1.52
2023-06-04T00:35:15.311Z,1.40
2023-06-04T00:37:41.753Z,1.80
2023-06-04T00:40:08.766Z,1.60
2023-06-04T00:42:35.250Z,2.10
2023-06-04T00:45:02.369Z,1.52
2023-06-04T00:47:28.905Z,1.67
2023-06-04T00:49:57.995Z,1.60
2023-06-04T00:52:25.295Z,1.48
2023-06-04T00:54:52.970Z,1.60
2023-06-04T00:57:19.497Z,1.58
2023-06-04T00:59:46.128Z,1.70
2023-06-04T01:02:16.766Z,1.75
2023-06-04T01:04:47.404Z,1.67
2023-06-04T01:09:41.979Z,1.48
2023-06-04T01:12:09.306Z,1.90
2023-06-04T01:14:36.699Z,1.80
2023-06-04T01:17:09.516Z,1.50
2023-06-04T01:20:02.090Z,1.83
2023-06-04T01:22:45.099Z,1.50
2023-06-04T01:25:34.606Z,1.50
2023-06-04T01:28:04.097Z,1.60
2023-06-04T01:30:35.204Z,2.00
2023-06-04T01:33:02.934Z,1.55
2023-06-04T01:35:34.182Z,1.92
2023-06-04T01:38:00.791Z,1.80
2023-06-04T01:40:27.790Z,1.60
2023-06-04T01:42:54.874Z,2.35
2023-06-04T01:45:22.816Z,1.60
2023-06-04T01:47:49.546Z,1.35
2023-06-04T01:50:16.789Z,1.77
2023-06-04T01:52:43.572Z,1.42
2023-06-04T01:55:13.216Z,1.52
2023-06-04T01:57:40.603Z,1.60
2023-06-04T02:00:13.092Z,1.88
2023-06-04T02:02:41.454Z,1.77
2023-06-04T02:05:09.242Z,1.60
2023-06-04T02:07:40.236Z,1.73
2023-06-04T02:10:09.095Z,1.70
2023-06-04T02:12:41.021Z,1.60
2023-06-04T02:15:08.589Z,1.70
2023-06-04T02:17:38.590Z,1.63
2023-06-04T02:20:06.938Z,2.00
2023-06-04T02:22:33.411Z,1.77
2023-06-04T02:24:59.830Z,2.03
2023-06-04T02:27:26.322Z,1.70
2023-06-04T02:29:52.788Z,1.60
2023-06-04T02:32:19.282Z,1.60
2023-06-04T02:34:45.786Z,1.60
2023-06-04T02:37:12.388Z,1.35
2023-06-04T02:39:38.848Z,1.77
2023-06-04T02:42:05.836Z,1.70
2023-06-04T02:44:32.337Z,1.60
2023-06-04T02:46:59.015Z,1.60
2023-06-04T02:49:26.110Z,1.90
2023-06-04T02:51:52.566Z,1.70
2023-06-04T02:54:19.028Z,1.80
2023-06-04T02:56:45.533Z,2.10
2023-06-04T02:59:14.432Z,2.08
2023-06-04T03:01:41.706Z,2.00
2023-06-04T03:04:11.082Z,2.08
2023-06-04T03:06:40.602Z,2.20
2023-06-04T03:09:08.113Z,2.28
2023-06-04T03:11:34.595Z,2.53
2023-06-04T03:14:01.096Z,2.15
2023-06-04T03:16:27.746Z,2.28
2023-06-04T03:18:54.347Z,2.70
2023-06-04T03:21:20.845Z,2.55
2023-06-04T03:23:47.353Z,2.67
2023-06-04T03:26:13.894Z,2.72
2023-06-04T03:28:41.243Z,2.85
2023-06-04T03:31:07.918Z,2.63
2023-06-04T03:33:34.568Z,2.92
2023-06-04T03:36:01.557Z,2.70
2023-06-04T03:38:28.063Z,2.40
2023-06-04T03:40:54.589Z,2.63
2023-06-04T03:43:22.021Z,2.95
2023-06-04T03:45:48.512Z,3.00
2023-06-04T03:48:14.998Z,3.05
2023-06-04T03:50:42.321Z,2.80
2023-06-04T03:53:09.033Z,2.53
2023-06-04T03:55:35.468Z,2.70
2023-06-04T03:58:01.957Z,2.90
2023-06-04T04:00:28.678Z,2.75
2023-06-04T04:02:55.304Z,2.58
2023-06-04T04:05:21.900Z,2.40
2023-06-04T04:07:49.089Z,2.30
2023-06-04T04:10:15.554Z,2.17
2023-06-04T04:12:42.135Z,2.50
2023-06-04T04:15:09.517Z,2.10
2023-06-04T04:17:36.096Z,2.50
2023-06-04T04:20:05.068Z,1.90
2023-06-04T04:22:32.341Z,1.83
2023-06-04T04:24:59.041Z,1.80
2023-06-04T04:27:25.503Z,1.80
2023-06-04T04:29:52.126Z,1.90
2023-06-04T04:32:18.623Z,2.25
2023-06-04T04:34:55.569Z,1.75
2023-06-04T04:37:22.863Z,1.90
2023-06-04T04:39:52.772Z,2.13
2023-06-04T04:42:20.256Z,2.25
2023-06-04T04:44:48.960Z,1.77
2023-06-04T04:47:16.428Z,1.90
2023-06-04T04:49:43.141Z,2.00
2023-06-04T04:52:09.650Z,2.00
2023-06-04T04:54:36.118Z,1.58
2023-06-04T04:57:13.388Z,1.90
2023-06-04T04:59:40.919Z,1.80
2023-06-04T05:02:07.634Z,1.77
2023-06-04T05:04:34.283Z,1.80
2023-06-04T05:07:00.965Z,1.63
2023-06-04T05:09:27.539Z,1.70
2023-06-04T05:11:54.068Z,1.88
2023-06-04T05:14:20.563Z,1.88
2023-06-04T05:16:49.592Z,1.83
2023-06-04T05:19:19.164Z,2.10
2023-06-04T05:21:45.670Z,2.20
2023-06-04T05:24:12.181Z,1.77
2023-06-04T05:26:40.689Z,1.80
2023-06-04T05:29:08.616Z,1.95
2023-06-04T05:31:35.920Z,1.70
2023-06-04T05:34:03.010Z,2.13
2023-06-04T05:36:31.324Z,1.65
2023-06-04T05:38:58.767Z,1.75
2023-06-04T05:41:25.330Z,1.42
2023-06-04T05:43:51.839Z,2.10
2023-06-04T05:46:18.670Z,1.70
2023-06-04T05:48:45.140Z,1.90
2023-06-04T05:51:11.678Z,2.08
2023-06-04T05:53:38.121Z,2.00
2023-06-04T05:56:04.857Z,1.63
2023-06-04T05:58:32.232Z,1.80
2023-06-04T06:00:58.673Z,2.17
2023-06-04T06:03:25.233Z,1.90
2023-06-04T06:05:51.984Z,1.60
2023-06-04T06:08:18.477Z,1.58
2023-06-04T06:10:44.934Z,1.67
2023-06-04T06:13:11.656Z,1.95
2023-06-04T06:15:38.134Z,1.58
2023-06-04T06:18:04.995Z,1.63
2023-06-04T06:20:31.589Z,1.52
2023-06-04T06:22:58.105Z,1.80
2023-06-04T06:25:24.659Z,1.38
2023-06-04T06:27:51.201Z,1.40
2023-06-04T06:30:18.463Z,1.75
2023-06-04T06:32:44.954Z,1.60
2023-06-04T06:35:11.437Z,1.65
2023-06-04T06:37:42.937Z,1.50
2023-06-04T06:40:10.029Z,1.40
2023-06-04T06:42:36.473Z,1.40
2023-06-04T06:45:03.101Z,1.50
2023-06-04T06:47:29.670Z,1.50
2023-06-04T06:49:56.302Z,1.27
2023-06-04T06:52:22.765Z,1.40
2023-06-04T06:54:49.273Z,1.67
2023-06-04T06:57:16.161Z,1.80
2023-06-04T06:59:42.620Z,1.70
2023-06-04T07:02:09.111Z,1.55
2023-06-04T07:04:37.406Z,1.65
2023-06-04T07:07:04.212Z,1.33
2023-06-04T07:09:30.821Z,2.72
2023-06-04T07:11:57.297Z,1.50
2023-06-04T07:14:23.760Z,1.40
2023-06-04T07:16:50.332Z,1.42
2023-06-04T07:19:16.848Z,1.40
2023-06-04T07:21:43.335Z,1.30
2023-06-04T07:24:09.977Z,1.30
2023-06-04T07:26:36.720Z,1.33
2023-06-04T07:29:03.449Z,1.42
2023-06-04T07:31:29.965Z,1.08
2023-06-04T07:33:56.475Z,1.60
2023-06-04T07:36:23.783Z,1.58
2023-06-04T07:38:50.353Z,1.42
2023-06-04T07:41:16.936Z,1.33
2023-06-04T07:43:44.398Z,1.48
2023-06-04T07:46:11.939Z,1.17
2023-06-04T07:48:38.407Z,1.38
2023-06-04T07:51:08.131Z,1.17
2023-06-04T07:53:34.786Z,1.40
2023-06-04T07:56:01.312Z,1.48
2023-06-04T07:58:27.872Z,1.25
2023-06-04T08:00:54.489Z,1.60
2023-06-04T08:03:21.638Z,1.30
2023-06-04T08:05:49.427Z,1.50
2023-06-04T08:08:16.098Z,1.42
2023-06-04T08:10:42.865Z,1.42
2023-06-04T08:13:10.967Z,1.52
2023-06-04T08:15:40.037Z,1.45
2023-06-04T08:18:06.674Z,1.60
2023-06-04T08:20:33.198Z,1.45
2023-06-04T08:22:59.693Z,1.23
2023-06-04T08:25:26.331Z,1.10
2023-06-04T08:27:52.955Z,1.17
2023-06-04T08:30:20.410Z,1.50
2023-06-04T08:32:46.993Z,1.17
2023-06-04T08:35:13.674Z,1.42
2023-06-04T08:37:40.998Z,1.30
2023-06-04T08:40:09.844Z,1.17
2023-06-04T08:42:42.147Z,1.35
2023-06-04T08:45:17.587Z,1.45
2023-06-04T08:47:52.062Z,1.10
2023-06-04T08:50:21.901Z,1.58
2023-06-04T08:52:49.385Z,1.20
2023-06-04T08:55:16.076Z,1.40
2023-06-04T08:57:42.671Z,1.20
2023-06-04T09:00:10.774Z,1.08
2023-06-04T09:02:38.852Z,1.25
2023-06-04T09:05:10.117Z,1.38
2023-06-04T09:07:40.477Z,1.60
2023-06-04T09:10:13.858Z,1.50
2023-06-04T09:12:47.506Z,1.10
2023-06-04T09:15:14.378Z,1.40
2023-06-04T09:17:40.968Z,1.50
2023-06-04T09:20:10.781Z,1.40
2023-06-04T09:22:38.628Z,1.00
2023-06-04T09:25:08.304Z,1.23
2023-06-04T09:27:41.428Z,1.20
2023-06-04T09:30:11.445Z,1.15
2023-06-04T09:32:38.074Z,1.20
2023-06-04T09:35:15.816Z,1.10
2023-06-04T09:37:43.393Z,1.30
2023-06-04T09:40:10.609Z,1.00
2023-06-04T09:42:43.831Z,1.25
2023-06-04T09:45:10.960Z,1.20
2023-06-04T09:47:44.413Z,1.30
2023-06-04T09:50:14.546Z,1.38
2023-06-04T09:52:41.800Z,1.20
2023-06-04T09:55:23.232Z,1.30
2023-06-04T09:57:53.586Z,1.30
2023-06-04T10:02:56.935Z,1.40
2023-06-04T10:05:25.486Z,1.50
2023-06-04T10:07:55.708Z,1.50
2023-06-04T10:10:26.635Z,1.23
2023-06-04T10:13:03.611Z,1.38
2023-06-04T10:15:30.419Z,1.30
2023-06-04T10:17:57.493Z,1.60
2023-06-04T10:20:24.709Z,1.10
2023-06-04T10:22:51.702Z,1.10
2023-06-04T10:25:19.342Z,1.20
2023-06-04T10:27:47.559Z,1.05
2023-06-04T10:30:14.257Z,1.30
2023-06-04T10:32:41.915Z,1.38
2023-06-04T10:35:09.191Z,1.00
2023-06-04T10:37:36.100Z,1.27
2023-06-04T10:40:05.738Z,1.05
2023-06-04T10:42:40.301Z,1.20
2023-06-04T10:45:14.626Z,1.20
2023-06-04T10:47:42.673Z,1.52
2023-06-04T10:50:56.234Z,1.25
2023-06-04T10:53:23.915Z,1.08
2023-06-04T10:55:54.365Z,1.23
2023-06-04T10:58:22.067Z,1.25
2023-06-04T11:01:04.672Z,1.30
2023-06-04T11:03:38.483Z,1.35
2023-06-04T11:06:16.943Z,1.20
2023-06-04T11:08:46.131Z,1.30
2023-06-04T11:11:16.764Z,1.00
2023-06-04T11:13:44.813Z,1.35
2023-06-04T11:16:18.964Z,1.10
2023-06-04T11:18:55.736Z,1.20
2023-06-04T11:21:22.680Z,1.40
2023-06-04T11:23:49.584Z,1.13
2023-06-04T11:26:16.118Z,1.35
2023-06-04T11:28:44.349Z,1.60
2023-06-04T11:31:11.376Z,1.20
2023-06-04T11:33:46.139Z,1.20
2023-06-04T11:36:29.720Z,1.20
2023-06-04T11:38:57.772Z,1.20
2023-06-04T11:41:28.013Z,1.25
2023-06-04T11:46:21.663Z,1.30
2023-06-04T11:48:48.215Z,1.35
2023-06-04T11:51:14.725Z,1.25
2023-06-04T11:53:41.700Z,1.20
2023-06-04T11:56:08.472Z,1.38
2023-06-04T11:58:35.478Z,1.40
2023-06-04T12:01:02.236Z,1.38
2023-06-04T12:03:38.561Z,1.70
2023-06-04T12:06:18.632Z,1.10
2023-06-04T12:08:55.727Z,1.35
2023-06-04T12:11:35.939Z,1.33
2023-06-04T12:16:32.193Z,1.27
2023-06-04T12:19:09.761Z,1.25
2023-06-04T12:21:36.882Z,1.42
2023-06-04T12:24:07.008Z,1.33
2023-06-04T12:29:13.069Z,1.15
2023-06-04T12:31:44.148Z,1.40
2023-06-04T12:34:12.587Z,1.30
2023-06-04T12:36:39.398Z,1.38
2023-06-04T12:39:06.616Z,1.30
2023-06-04T12:41:37.593Z,1.30
2023-06-04T12:44:04.145Z,1.65
2023-06-04T12:46:30.664Z,1.15
2023-06-04T12:48:57.144Z,1.45
2023-06-04T12:51:23.789Z,1.77
2023-06-04T12:53:50.477Z,1.40
2023-06-04T12:56:17.178Z,1.40
2023-06-04T12:58:43.870Z,1.55
2023-06-04T13:01:11.230Z,1.30
2023-06-04T13:03:39.689Z,1.30
2023-06-04T13:06:06.785Z,1.30
2023-06-04T13:08:34.557Z,1.20
2023-06-04T13:11:02.603Z,1.48
2023-06-04T13:13:29.614Z,1.17
2023-06-04T13:15:56.321Z,1.55
2023-06-04T13:18:23.494Z,1.33
2023-06-04T13:20:50.536Z,1.30
2023-06-04T13:23:17.470Z,1.45
2023-06-04T13:25:44.257Z,1.40
2023-06-04T13:28:10.742Z,1.40
2023-06-04T13:30:40.219Z,1.40
2023-06-04T13:33:07.205Z,1.55
2023-06-04T13:35:33.971Z,1.13
2023-06-04T13:38:00.717Z,1.30
2023-06-04T13:40:27.236Z,1.30
2023-06-04T13:42:53.742Z,1.48
2023-06-04T13:45:21.280Z,1.38
2023-06-04T13:47:54.388Z,1.15
2023-06-04T13:50:22.483Z,1.20
2023-06-04T13:52:49.034Z,1.58
2023-06-04T13:55:15.488Z,1.13
2023-06-04T13:57:41.975Z,1.38
2023-06-04T14:00:09.216Z,1.30
2023-06-04T14:02:36.110Z,1.30
2023-06-04T14:05:02.750Z,1.30
2023-06-04T14:07:29.556Z,1.52
2023-06-04T14:09:57.178Z,1.30
2023-06-04T14:12:24.423Z,1.58
2023-06-04T14:14:51.555Z,1.35
2023-06-04T14:17:18.371Z,1.48
2023-06-04T14:19:45.512Z,1.40
2023-06-04T14:22:12.983Z,1.50
2023-06-04T14:24:41.487Z,1.30
2023-06-04T14:27:07.978Z,1.58
2023-06-04T14:29:37.441Z,1.60
2023-06-04T14:32:06.874Z,1.58
2023-06-04T14:34:33.630Z,3.85
2023-06-04T14:37:01.423Z,1.50
2023-06-04T14:39:37.635Z,1.70
2023-06-04T14:42:04.779Z,1.30
2023-06-04T14:44:31.618Z,1.85
2023-06-04T14:47:00.172Z,1.60
2023-06-04T14:49:27.189Z,1.63
2023-06-04T14:51:53.651Z,1.70
2023-06-04T14:54:20.265Z,1.50
2023-06-04T14:56:46.881Z,1.50
2023-06-04T14:59:13.347Z,1.67
2023-06-04T15:01:41.852Z,1.77
2023-06-04T15:04:09.294Z,1.80
2023-06-04T15:06:36.203Z,1.90
2023-06-04T15:09:04.590Z,1.73
2023-06-04T15:11:31.304Z,1.80
2023-06-04T15:13:57.935Z,2.10
2023-06-04T15:16:24.625Z,2.00
2023-06-04T15:18:51.277Z,1.70
2023-06-04T15:21:17.966Z,1.88
2023-06-04T15:23:47.047Z,2.20
2023-06-04T15:26:13.570Z,2.33
2023-06-04T15:28:40.077Z,2.30
2023-06-04T15:31:06.856Z,2.35
2023-06-04T15:33:33.676Z,2.20
2023-06-04T15:36:00.573Z,2.22
2023-06-04T15:38:27.227Z,2.10
2023-06-04T15:40:53.740Z,2.40
2023-06-04T15:43:20.268Z,2.63
2023-06-04T15:45:46.842Z,2.38
2023-06-04T15:48:13.347Z,2.58
2023-06-04T15:50:39.822Z,2.58
2023-06-04T15:53:06.313Z,2.88
2023-06-04T15:55:33.549Z,2.90
2023-06-04T15:58:00.065Z,2.65
2023-06-04T16:00:27.023Z,2.92
2023-06-04T16:02:53.549Z,3.30
2023-06-04T16:05:20.095Z,3.10
2023-06-04T16:07:46.585Z,3.20
2023-06-04T16:10:13.050Z,3.45
2023-06-04T16:12:41.084Z,3.22
2023-06-04T16:15:07.968Z,3.20
2023-06-04T16:17:34.607Z,3.38
2023-06-04T16:20:01.346Z,3.67
2023-06-04T16:22:27.902Z,3.42
2023-06-04T16:24:54.573Z,3.45
2023-06-04T16:27:21.552Z,3.72
2023-06-04T16:29:48.049Z,4.15
2023-06-04T16:32:14.529Z,3.67
2023-06-04T16:34:41.137Z,3.50
2023-06-04T16:37:08.086Z,3.30
2023-06-04T16:39:34.907Z,3.75
2023-06-04T16:42:03.934Z,3.63
2023-06-04T16:44:30.436Z,3.70
2023-06-04T16:46:57.038Z,3.50
2023-06-04T16:49:23.565Z,3.35
2023-06-04T16:51:59.951Z,2.92
2023-06-04T16:55:05.241Z,3.55
2023-06-04T16:57:32.785Z,2.92
2023-06-04T17:00:07.082Z,2.63
2023-06-04T17:02:40.229Z,2.85
2023-06-04T17:05:16.476Z,3.03
2023-06-04T17:07:50.231Z,2.83
2023-06-04T17:10:17.832Z,2.63
2023-06-04T17:12:44.515Z,2.60
2023-06-04T17:15:11.131Z,2.50
2023-06-04T17:17:37.676Z,2.13
2023-06-04T17:20:07.061Z,2.20
2023-06-04T17:22:33.581Z,2.13
2023-06-04T17:25:00.102Z,2.30
2023-06-04T17:27:26.679Z,2.00
2023-06-04T17:29:53.145Z,2.00
2023-06-04T17:32:19.621Z,2.08
2023-06-04T17:34:46.576Z,2.00
2023-06-04T17:37:13.096Z,1.98
2023-06-04T17:39:39.744Z,2.10
2023-06-04T17:42:06.568Z,1.83
2023-06-04T17:44:33.071Z,2.10
2023-06-04T17:47:04.729Z,1.83
2023-06-04T17:49:31.319Z,2.33
2023-06-04T17:51:59.740Z,1.98
2023-06-04T17:54:26.268Z,1.75
2023-06-04T17:56:52.854Z,1.75
2023-06-04T17:59:19.377Z,1.85
2023-06-04T18:01:48.260Z,2.20
2023-06-04T18:04:14.940Z,1.77
2023-06-04T18:06:41.608Z,1.60
2023-06-04T18:09:08.145Z,1.77
2023-06-04T18:11:34.651Z,1.77
2023-06-04T18:14:01.597Z,2.30
2023-06-04T18:16:28.268Z,1.75
2023-06-04T18:18:55.745Z,1.70
2023-06-04T18:21:22.362Z,1.65
2023-06-04T18:23:52.736Z,2.00
2023-06-04T18:26:19.519Z,1.80
2023-06-04T18:28:46.079Z,1.55
2023-06-04T18:31:12.702Z,1.85
2023-06-04T18:33:53.732Z,1.60
2023-06-04T18:36:20.728Z,1.63
2023-06-04T18:38:47.251Z,1.60
2023-06-04T18:41:14.148Z,1.70
2023-06-04T18:43:40.956Z,2.00
2023-06-04T18:46:07.608Z,1.70
2023-06-04T18:48:34.484Z,1.55
2023-06-04T18:51:00.963Z,1.70
2023-06-04T18:53:27.650Z,1.63
2023-06-04T18:55:55.338Z,1.95
2023-06-04T18:58:22.020Z,1.80
2023-06-04T19:00:48.669Z,1.60
2023-06-04T19:03:15.272Z,2.00
2023-06-04T19:05:41.863Z,1.75
2023-06-04T19:08:10.049Z,1.50
2023-06-04T19:10:36.558Z,2.03
2023-06-04T19:13:03.818Z,1.63
2023-06-04T19:15:30.574Z,1.80
2023-06-04T19:17:58.847Z,1.77
2023-06-04T19:20:25.756Z,1.70
2023-06-04T19:22:52.251Z,1.55
2023-06-04T19:25:18.708Z,1.80
2023-06-04T19:27:45.634Z,1.80
2023-06-04T19:30:12.182Z,1.73
2023-06-04T19:32:38.743Z,1.35
2023-06-04T19:35:07.977Z,1.60
2023-06-04T19:37:34.604Z,1.85
2023-06-04T19:40:01.644Z,1.80
2023-06-04T19:42:28.149Z,1.60
2023-06-04T19:44:54.805Z,1.33
2023-06-04T19:48:19.137Z,1.60
2023-06-04T19:50:45.934Z,1.60
2023-06-04T19:53:12.482Z,1.35
2023-06-04T19:55:39.013Z,1.52
2023-06-04T19:58:05.520Z,1.52
2023-06-04T20:00:32.068Z,1.58
2023-06-04T20:02:58.860Z,1.77
2023-06-04T20:05:25.441Z,1.58
2023-06-04T20:07:51.919Z,1.45
2023-06-04T20:10:24.749Z,1.70
2023-06-04T20:12:54.147Z,1.75
2023-06-04T20:15:21.104Z,2.08
2023-06-04T20:17:49.404Z,2.58
2023-06-04T20:20:16.884Z,1.70
2023-06-04T20:22:44.381Z,1.60
2023-06-04T20:25:11.819Z,1.60
2023-06-04T20:27:52.945Z,2.00
2023-06-04T20:30:19.971Z,2.20
2023-06-04T20:32:47.110Z,1.80
2023-06-04T20:35:14.167Z,1.80
2023-06-04T20:37:40.760Z,1.55
2023-06-04T20:40:08.173Z,1.70
2023-06-04T20:42:34.746Z,1.40
2023-06-04T20:45:01.647Z,1.75
2023-06-04T20:47:28.370Z,1.50
2023-06-04T20:49:55.617Z,1.40
2023-06-04T20:52:22.349Z,1.58
2023-06-04T20:54:48.858Z,1.50
2023-06-04T20:57:15.362Z,1.20
2023-06-04T20:59:42.055Z,1.55
2023-06-04T21:02:08.913Z,1.77
2023-06-04T21:04:35.615Z,1.50
2023-06-04T21:07:02.644Z,1.67
2023-06-04T21:09:29.297Z,1.77
2023-06-04T21:11:55.847Z,1.58
2023-06-04T21:14:22.305Z,1.92
2023-06-04T21:16:48.856Z,1.60
2023-06-04T21:19:15.396Z,1.48
2023-06-04T21:21:41.993Z,1.80
2023-06-04T21:24:08.811Z,1.60
2023-06-04T21:26:35.374Z,1.65
2023-06-04T21:29:01.904Z,1.50
2023-06-04T21:31:28.497Z,1.42
2023-06-04T21:33:55.035Z,1.65
2023-06-04T21:36:21.552Z,1.40
2023-06-04T21:38:48.709Z,2.05
2023-06-04T21:41:15.331Z,1.30
2023-06-04T21:43:41.804Z,1.50
2023-06-04T21:46:08.870Z,1.63
2023-06-04T21:49:20.687Z,1.40
2023-06-04T21:51:47.245Z,1.50
2023-06-04T21:54:13.784Z,1.42
2023-06-04T21:56:40.265Z,1.50
2023-06-04T21:59:07.877Z,1.50
2023-06-04T22:01:34.645Z,1.35
2023-06-04T22:04:01.169Z,1.75
2023-06-04T22:06:28.647Z,1.92
2023-06-04T22:08:55.159Z,1.70
2023-06-04T22:11:22.691Z,1.60
2023-06-04T22:13:49.188Z,1.63
2023-06-04T22:16:15.845Z,1.23
2023-06-04T22:21:15.443Z,1.40
2023-06-04T22:23:42.042Z,1.50
2023-06-04T22:26:08.589Z,1.42
2023-06-04T22:28:35.106Z,1.33
2023-06-04T22:31:01.699Z,1.52
2023-06-04T22:33:30.130Z,1.23
2023-06-04T22:35:56.871Z,1.40
2023-06-04T22:38:24.782Z,1.30
2023-06-04T22:40:51.876Z,1.20
2023-06-04T22:43:18.353Z,1.30
2023-06-04T22:45:44.919Z,1.30
2023-06-04T22:48:11.529Z,1.20
2023-06-04T22:50:38.158Z,1.30
2023-06-04T22:53:09.072Z,1.40
2023-06-04T22:55:36.800Z,1.40
2023-06-04T22:58:03.710Z,1.40
2023-06-04T23:00:31.094Z,1.52
2023-06-04T23:02:57.797Z,1.20
2023-06-04T23:05:25.708Z,1.20
2023-06-04T23:07:52.741Z,1.20
2023-06-04T23:10:19.421Z,1.10
2023-06-04T23:12:46.712Z,1.30
2023-06-04T23:15:24.228Z,1.40
2023-06-04T23:17:51.594Z,1.40
2023-06-04T23:20:19.135Z,1.25
2023-06-04T23:22:46.457Z,1.55
2023-06-04T23:25:13.095Z,1.10
2023-06-04T23:27:39.630Z,1.23
2023-06-04T23:30:06.844Z,1.02
2023-06-04T23:32:33.650Z,1.63
2023-06-04T23:35:00.224Z,1.40
2023-06-04T23:37:26.774Z,1.10
2023-06-04T23:39:53.657Z,1.20
2023-06-04T23:42:20.154Z,1.20
2023-06-04T23:44:46.667Z,1.30
2023-06-04T23:47:13.238Z,1.20
2023-06-04T23:49:39.752Z,1.30
2023-06-04T23:52:06.460Z,1.52
2023-06-04T23:54:33.038Z,1.55
2023-06-04T23:56:59.877Z,1.25
2023-06-04T23:59:27.128Z,1.30
